createdAt,value
2018-12-17T00:01:36.059Z,1.20
2018-12-17T00:04:04.301Z,1.20
2018-12-17T00:06:33.450Z,1.20
2018-12-17T00:09:01.677Z,1.20
2018-12-17T00:11:29.977Z,1.20
2018-12-17T00:13:58.126Z,1.20
2018-12-17T00:16:26.395Z,1.20
2018-12-17T00:18:54.620Z,1.10
2018-12-17T00:21:23.737Z,1.20
2018-12-17T00:23:51.890Z,1.20
2018-12-17T00:26:20.047Z,1.20
2018-12-17T00:28:48.213Z,1.20
2018-12-17T00:31:16.384Z,1.20
2018-12-17T00:33:44.540Z,1.20
2018-12-17T00:36:12.689Z,1.20
2018-12-17T00:38:40.909Z,1.20
2018-12-17T00:41:10.060Z,1.20
2018-12-17T00:43:38.508Z,1.10
2018-12-17T00:46:06.671Z,1.20
2018-12-17T00:48:34.831Z,1.20
2018-12-17T00:51:02.982Z,1.20
2018-12-17T00:53:31.133Z,1.20
2018-12-17T00:56:00.126Z,1.20
2018-12-17T00:58:28.277Z,1.20
2018-12-17T01:00:56.425Z,1.20
2018-12-17T01:03:24.655Z,1.20
2018-12-17T01:05:52.915Z,1.20
2018-12-17T01:08:21.134Z,1.20
2018-12-17T01:10:49.361Z,1.20
2018-12-17T01:13:17.526Z,1.20
2018-12-17T01:15:45.676Z,1.20
2018-12-17T01:18:13.818Z,1.20
2018-12-17T01:20:42.034Z,1.20
2018-12-17T01:23:10.189Z,1.20
2018-12-17T01:25:38.421Z,1.20
2018-12-17T01:28:06.622Z,1.20
2018-12-17T01:30:35.402Z,1.20
2018-12-17T01:33:03.860Z,1.30
2018-12-17T01:35:32.146Z,1.30
2018-12-17T01:38:00.309Z,1.30
2018-12-17T01:40:28.494Z,1.30
2018-12-17T01:42:56.633Z,1.20
2018-12-17T01:45:24.853Z,1.30
2018-12-17T01:47:53.169Z,1.30
2018-12-17T01:50:21.324Z,1.20
2018-12-17T01:52:49.473Z,1.20
2018-12-17T01:55:17.646Z,1.20
2018-12-17T01:57:45.867Z,1.30
2018-12-17T02:00:14.214Z,1.20
2018-12-17T02:02:42.384Z,1.20
2018-12-17T02:05:10.627Z,1.20
2018-12-17T02:07:39.399Z,1.20
2018-12-17T02:10:07.751Z,1.20
2018-12-17T02:12:35.983Z,1.20
2018-12-17T02:15:05.677Z,1.20
2018-12-17T02:17:33.946Z,1.20
2018-12-17T02:20:02.292Z,1.20
2018-12-17T02:22:30.432Z,1.30
2018-12-17T02:24:58.685Z,1.30
2018-12-17T02:27:27.515Z,1.30
2018-12-17T02:29:55.734Z,1.30
2018-12-17T02:32:23.955Z,1.30
2018-12-17T02:34:52.186Z,1.30
2018-12-17T02:37:20.401Z,1.30
2018-12-17T02:39:48.630Z,1.30
2018-12-17T02:42:16.922Z,1.20
2018-12-17T02:44:45.554Z,1.20
2018-12-17T02:47:13.708Z,1.20
2018-12-17T02:49:42.042Z,1.20
2018-12-17T02:52:10.277Z,1.20
2018-12-17T02:54:39.113Z,1.20
2018-12-17T02:57:07.246Z,1.30
2018-12-17T02:59:35.533Z,1.30
2018-12-17T03:02:03.848Z,1.30
2018-12-17T03:04:32.028Z,1.30
2018-12-17T03:07:00.181Z,1.30
2018-12-17T03:09:28.341Z,1.30
2018-12-17T03:11:56.499Z,1.30
2018-12-17T03:14:24.666Z,1.30
2018-12-17T03:16:53.457Z,1.30
2018-12-17T03:19:21.661Z,1.30
2018-12-17T03:21:49.886Z,1.30
2018-12-17T03:24:18.180Z,1.30
2018-12-17T03:26:46.333Z,1.30
2018-12-17T03:29:14.561Z,1.30
2018-12-17T03:31:43.016Z,1.30
2018-12-17T03:34:11.238Z,1.30
2018-12-17T03:36:39.454Z,1.30
2018-12-17T03:39:07.736Z,1.30
2018-12-17T03:41:35.945Z,1.30
2018-12-17T03:44:04.104Z,1.30
2018-12-17T03:46:32.270Z,1.30
2018-12-17T03:49:00.487Z,1.30
2018-12-17T03:51:28.665Z,1.30
2018-12-17T03:53:56.955Z,1.30
2018-12-17T03:56:25.272Z,1.30
2018-12-17T03:58:59.215Z,1.30
2018-12-17T04:01:23.747Z,1.20
2018-12-17T04:03:51.965Z,1.20
2018-12-17T04:06:20.190Z,1.30
2018-12-17T04:08:48.548Z,1.20
2018-12-17T04:11:16.740Z,1.20
2018-12-17T04:13:44.966Z,1.30
2018-12-17T04:16:13.184Z,1.30
2018-12-17T04:18:41.389Z,1.30
2018-12-17T04:21:09.664Z,1.30
2018-12-17T04:23:37.852Z,1.30
2018-12-17T04:26:06.129Z,1.30
2018-12-17T04:28:34.449Z,1.30
2018-12-17T04:31:02.591Z,1.30
2018-12-17T04:33:30.825Z,1.30
2018-12-17T04:35:58.994Z,1.30
2018-12-17T04:38:27.192Z,1.40
2018-12-17T04:40:55.550Z,1.30
2018-12-17T04:43:23.844Z,1.30
2018-12-17T04:45:52.069Z,1.40
2018-12-17T04:48:20.347Z,1.40
2018-12-17T04:50:48.582Z,1.30
2018-12-17T04:53:16.833Z,1.30
2018-12-17T04:55:45.008Z,1.40
2018-12-17T04:58:13.417Z,1.30
2018-12-17T05:00:41.634Z,1.30
2018-12-17T05:03:09.873Z,1.30
2018-12-17T05:05:38.963Z,1.30
2018-12-17T05:08:07.166Z,1.30
2018-12-17T05:10:35.348Z,1.30
2018-12-17T05:13:03.510Z,1.30
2018-12-17T05:15:31.741Z,1.30
2018-12-17T05:18:00.049Z,1.30
2018-12-17T05:20:28.206Z,1.30
2018-12-17T05:22:56.426Z,1.30
2018-12-17T05:25:25.177Z,1.40
2018-12-17T05:27:53.393Z,1.40
2018-12-17T05:30:21.603Z,1.40
2018-12-17T05:32:49.813Z,1.40
2018-12-17T05:35:18.152Z,1.40
2018-12-17T05:37:46.374Z,1.40
2018-12-17T05:40:14.592Z,1.40
2018-12-17T05:42:42.802Z,1.40
2018-12-17T05:45:11.027Z,1.40
2018-12-17T05:47:39.255Z,1.40
2018-12-17T05:50:07.590Z,1.40
2018-12-17T05:52:36.527Z,1.40
2018-12-17T05:55:05.285Z,1.40
2018-12-17T05:57:33.452Z,1.50
2018-12-17T06:00:01.610Z,1.50
2018-12-17T06:02:29.828Z,1.50
2018-12-17T06:04:59.382Z,1.50
2018-12-17T06:07:27.832Z,1.50
2018-12-17T06:09:56.004Z,1.50
2018-12-17T06:12:24.255Z,1.50
2018-12-17T06:14:52.430Z,1.40
2018-12-17T06:17:20.585Z,1.40
2018-12-17T06:19:48.750Z,1.40
2018-12-17T06:22:16.891Z,1.40
2018-12-17T06:24:45.224Z,1.30
2018-12-17T06:27:13.441Z,1.40
2018-12-17T06:29:41.646Z,1.40
2018-12-17T06:32:09.818Z,1.40
2018-12-17T06:34:37.986Z,1.50
2018-12-17T06:37:06.176Z,1.50
2018-12-17T06:39:34.394Z,1.50
2018-12-17T06:42:02.583Z,1.50
2018-12-17T06:44:30.846Z,1.50
2018-12-17T06:46:59.172Z,1.60
2018-12-17T06:49:27.391Z,1.60
2018-12-17T06:51:55.800Z,1.60
2018-12-17T06:54:24.175Z,1.60
2018-12-17T06:56:52.388Z,1.60
2018-12-17T06:59:20.642Z,1.60
2018-12-17T07:01:49.626Z,1.60
2018-12-17T07:04:17.836Z,1.60
2018-12-17T07:06:46.101Z,1.60
2018-12-17T07:09:14.330Z,1.70
2018-12-17T07:11:42.541Z,1.70
2018-12-17T07:14:11.199Z,1.70
2018-12-17T07:16:39.423Z,1.70
2018-12-17T07:19:07.622Z,1.70
2018-12-17T07:21:35.777Z,1.70
2018-12-17T07:24:04.091Z,1.60
2018-12-17T07:26:32.244Z,1.60
2018-12-17T07:29:00.511Z,1.60
2018-12-17T07:31:28.678Z,1.60
2018-12-17T07:33:56.886Z,1.70
2018-12-17T07:36:25.033Z,1.70
2018-12-17T07:38:53.260Z,1.70
2018-12-17T07:41:21.486Z,1.70
2018-12-17T07:43:49.788Z,1.80
2018-12-17T07:46:17.956Z,1.80
2018-12-17T07:48:46.191Z,1.80
2018-12-17T07:51:14.599Z,1.80
2018-12-17T07:53:42.782Z,1.80
2018-12-17T07:56:10.942Z,1.90
2018-12-17T07:58:39.685Z,1.90
2018-12-17T08:01:07.846Z,1.90
2018-12-17T08:03:35.994Z,1.90
2018-12-17T08:06:04.141Z,1.90
2018-12-17T08:08:35.393Z,1.90
2018-12-17T08:11:02.461Z,1.90
2018-12-17T08:13:30.762Z,2.00
2018-12-17T08:15:59.043Z,1.90
2018-12-17T08:18:27.253Z,1.90
2018-12-17T08:20:55.484Z,2.00
2018-12-17T08:23:24.639Z,2.00
2018-12-17T08:25:52.907Z,2.00
2018-12-17T08:28:21.205Z,2.00
2018-12-17T08:30:49.444Z,2.00
2018-12-17T08:33:17.604Z,2.00
2018-12-17T08:35:46.166Z,2.00
2018-12-17T08:38:16.399Z,2.00
2018-12-17T08:40:44.548Z,2.00
2018-12-17T08:43:12.701Z,2.00
2018-12-17T08:45:40.936Z,2.00
2018-12-17T08:48:09.095Z,2.10
2018-12-17T08:50:37.241Z,2.10
2018-12-17T08:53:05.399Z,2.10
2018-12-17T08:55:33.567Z,2.10
2018-12-17T08:58:01.749Z,2.10
2018-12-17T09:00:29.991Z,2.10
2018-12-17T09:02:58.605Z,2.10
2018-12-17T09:05:26.766Z,2.10
2018-12-17T09:07:55.070Z,2.10
2018-12-17T09:10:23.248Z,2.10
2018-12-17T09:12:52.003Z,2.10
2018-12-17T09:15:20.256Z,2.10
2018-12-17T09:17:48.421Z,2.10
2018-12-17T09:20:16.587Z,2.10
2018-12-17T09:22:44.787Z,2.10
2018-12-17T09:25:13.025Z,2.10
2018-12-17T09:27:41.186Z,2.20
2018-12-17T09:30:09.622Z,2.20
2018-12-17T09:32:37.787Z,2.20
2018-12-17T09:35:06.214Z,2.20
2018-12-17T09:37:34.472Z,2.20
2018-12-17T09:40:03.224Z,2.20
2018-12-17T09:42:31.433Z,2.20
2018-12-17T09:44:59.670Z,2.30
2018-12-17T09:47:27.806Z,2.30
2018-12-17T09:49:55.959Z,2.30
2018-12-17T09:52:24.117Z,2.30
2018-12-17T09:54:52.359Z,2.30
2018-12-17T09:57:20.520Z,2.30
2018-12-17T09:59:48.677Z,2.30
2018-12-17T10:02:16.843Z,2.40
2018-12-17T10:04:45.187Z,2.40
2018-12-17T10:07:13.353Z,2.40
2018-12-17T10:09:41.486Z,2.40
2018-12-17T10:12:09.693Z,2.40
2018-12-17T10:14:37.852Z,2.40
2018-12-17T10:17:06.063Z,2.50
2018-12-17T10:19:34.223Z,2.50
2018-12-17T10:22:02.396Z,2.50
2018-12-17T10:24:30.582Z,2.60
2018-12-17T10:26:58.934Z,2.60
2018-12-17T10:29:27.175Z,2.70
2018-12-17T10:31:55.427Z,2.70
2018-12-17T10:34:23.714Z,2.80
2018-12-17T10:36:51.890Z,2.80
2018-12-17T10:39:21.005Z,2.90
2018-12-17T10:41:49.147Z,2.90
2018-12-17T10:44:17.303Z,2.90
2018-12-17T10:46:45.457Z,2.90
2018-12-17T10:49:13.602Z,3.00
2018-12-17T10:51:41.765Z,3.00
2018-12-17T10:54:09.923Z,3.00
2018-12-17T10:56:38.147Z,3.10
2018-12-17T10:59:06.877Z,3.20
2018-12-17T11:01:40.867Z,3.20
2018-12-17T11:04:10.625Z,3.30
2018-12-17T11:06:38.775Z,3.40
2018-12-17T11:09:07.938Z,3.50
2018-12-17T11:11:36.192Z,3.60
2018-12-17T11:14:04.713Z,3.70
2018-12-17T11:16:32.889Z,3.70
2018-12-17T11:19:01.061Z,3.70
2018-12-17T11:21:29.222Z,3.70
2018-12-17T11:23:58.190Z,3.80
2018-12-17T11:26:26.371Z,3.70
2018-12-17T11:28:54.566Z,3.70
2018-12-17T11:31:22.819Z,3.70
2018-12-17T11:33:51.054Z,3.70
2018-12-17T11:36:19.240Z,3.70
2018-12-17T11:38:47.402Z,3.70
2018-12-17T11:41:15.575Z,3.70
2018-12-17T11:43:44.192Z,3.80
2018-12-17T11:46:12.544Z,3.80
2018-12-17T11:48:41.209Z,3.80
2018-12-17T11:51:09.634Z,3.90
2018-12-17T11:53:37.787Z,3.90
2018-12-17T11:56:06.028Z,3.90
2018-12-17T11:58:34.194Z,3.90
2018-12-17T12:01:03.109Z,3.90
2018-12-17T12:03:31.962Z,4.00
2018-12-17T12:06:00.110Z,3.90
2018-12-17T12:08:28.266Z,3.90
2018-12-17T12:10:56.426Z,4.00
2018-12-17T12:13:24.639Z,4.00
2018-12-17T12:15:52.849Z,4.00
2018-12-17T12:18:21.043Z,3.90
2018-12-17T12:20:49.276Z,3.90
2018-12-17T12:23:17.467Z,4.00
2018-12-17T12:25:45.678Z,4.00
2018-12-17T12:28:13.885Z,4.00
2018-12-17T12:30:42.053Z,4.00
2018-12-17T12:33:10.196Z,4.00
2018-12-17T12:35:38.615Z,4.00
2018-12-17T12:38:06.827Z,4.00
2018-12-17T12:40:35.066Z,4.00
2018-12-17T12:43:03.291Z,4.00
2018-12-17T12:45:31.562Z,4.00
2018-12-17T12:47:59.741Z,4.00
2018-12-17T12:50:28.271Z,4.10
2018-12-17T12:52:56.428Z,4.00
2018-12-17T12:55:24.595Z,4.10
2018-12-17T12:57:52.876Z,4.10
2018-12-17T13:00:21.114Z,4.10
2018-12-17T13:02:49.355Z,4.10
2018-12-17T13:05:17.531Z,4.20
2018-12-17T13:07:45.698Z,4.10
2018-12-17T13:10:13.939Z,4.20
2018-12-17T13:12:42.087Z,4.20
2018-12-17T13:15:10.228Z,4.20
2018-12-17T13:17:38.409Z,4.20
2018-12-17T13:20:06.646Z,4.20
2018-12-17T13:22:34.866Z,4.20
2018-12-17T13:25:03.663Z,4.30
2018-12-17T13:27:31.823Z,4.30
2018-12-17T13:30:00.046Z,4.20
2018-12-17T13:32:28.243Z,4.30
2018-12-17T13:34:56.398Z,4.30
2018-12-17T13:37:24.570Z,4.30
2018-12-17T13:39:52.861Z,4.30
2018-12-17T13:42:21.063Z,4.30
2018-12-17T13:44:49.452Z,4.30
2018-12-17T13:47:17.743Z,4.30
2018-12-17T13:49:45.953Z,4.40
2018-12-17T13:55:18.463Z,4.40
2018-12-17T13:57:46.697Z,4.50
2018-12-17T14:00:14.918Z,4.50
2018-12-17T14:02:43.060Z,4.50
2018-12-17T14:05:11.274Z,4.50
2018-12-17T14:07:39.932Z,4.50
2018-12-17T14:10:14.409Z,4.50
2018-12-17T14:12:42.610Z,4.50
2018-12-17T14:15:10.749Z,4.60
2018-12-17T14:17:41.007Z,4.60
2018-12-17T14:20:14.775Z,4.60
2018-12-17T14:22:42.986Z,4.60
2018-12-17T14:25:12.079Z,4.70
2018-12-17T14:27:40.357Z,4.60
2018-12-17T14:30:09.182Z,4.70
2018-12-17T14:32:37.330Z,4.70
2018-12-17T14:35:05.589Z,4.80
2018-12-17T14:37:35.812Z,4.80
2018-12-17T14:40:06.384Z,4.80
2018-12-17T14:42:34.515Z,4.90
2018-12-17T14:45:03.020Z,4.90
2018-12-17T14:47:31.263Z,4.90
2018-12-17T14:50:00.610Z,4.90
2018-12-17T14:52:29.198Z,5.00
2018-12-17T14:54:57.378Z,5.00
2018-12-17T14:57:25.609Z,5.00
2018-12-17T14:59:53.827Z,5.00
2018-12-17T15:02:22.016Z,5.00
2018-12-17T15:04:50.186Z,5.00
2018-12-17T15:07:18.371Z,5.00
2018-12-17T15:09:46.772Z,5.00
2018-12-17T15:12:14.945Z,5.00
2018-12-17T15:14:43.170Z,5.10
2018-12-17T15:17:11.400Z,5.10
2018-12-17T15:19:39.612Z,5.10
2018-12-17T15:22:07.828Z,5.30
2018-12-17T15:24:40.378Z,5.30
2018-12-17T15:27:06.239Z,5.40
2018-12-17T15:29:34.470Z,5.60
2018-12-17T15:32:02.659Z,5.70
2018-12-17T15:34:30.802Z,5.70
2018-12-17T15:36:58.965Z,5.90
2018-12-17T15:39:27.296Z,5.80
2018-12-17T15:41:55.598Z,5.90
2018-12-17T15:44:23.806Z,6.00
2018-12-17T15:46:52.117Z,5.90
2018-12-17T15:49:20.429Z,5.90
2018-12-17T15:51:48.595Z,6.00
2018-12-17T15:54:16.989Z,6.00
2018-12-17T15:56:45.387Z,6.10
2018-12-17T15:59:13.783Z,6.10
2018-12-17T16:01:42.595Z,6.10
2018-12-17T16:04:10.939Z,6.10
2018-12-17T16:06:39.153Z,6.10
2018-12-17T16:09:07.422Z,6.20
2018-12-17T16:11:35.584Z,6.10
2018-12-17T16:14:03.779Z,6.20
2018-12-17T16:16:32.036Z,6.10
2018-12-17T16:19:00.330Z,6.10
2018-12-17T16:21:28.515Z,6.10
2018-12-17T16:23:57.152Z,6.10
2018-12-17T16:26:25.358Z,6.10
2018-12-17T16:28:53.503Z,6.10
2018-12-17T16:31:21.659Z,6.20
2018-12-17T16:33:50.341Z,6.20
2018-12-17T16:36:18.607Z,6.20
2018-12-17T16:38:46.768Z,6.20
2018-12-17T16:41:14.999Z,6.10
2018-12-17T16:43:43.165Z,6.20
2018-12-17T16:46:11.362Z,6.20
2018-12-17T16:48:39.501Z,6.20
2018-12-17T16:51:07.799Z,6.20
2018-12-17T16:53:35.946Z,6.10
2018-12-17T16:56:04.111Z,6.20
2018-12-17T16:58:32.374Z,6.10
2018-12-17T17:01:00.553Z,6.10
2018-12-17T17:03:28.813Z,6.10
2018-12-17T17:05:56.961Z,6.10
2018-12-17T17:08:25.169Z,6.10
2018-12-17T17:10:53.332Z,6.00
2018-12-17T17:13:21.479Z,6.00
2018-12-17T17:15:49.648Z,5.90
2018-12-17T17:18:17.792Z,5.90
2018-12-17T17:20:45.943Z,5.90
2018-12-17T17:23:14.118Z,5.80
2018-12-17T17:25:42.371Z,5.70
2018-12-17T17:28:10.555Z,5.70
2018-12-17T17:30:38.726Z,5.70
2018-12-17T17:33:06.874Z,5.60
2018-12-17T17:35:35.032Z,5.70
2018-12-17T17:38:03.210Z,5.70
2018-12-17T17:40:31.367Z,5.70
2018-12-17T17:42:59.651Z,5.80
2018-12-17T17:45:28.259Z,5.90
2018-12-17T17:47:56.415Z,6.00
2018-12-17T17:50:25.176Z,6.10
2018-12-17T17:52:53.345Z,6.00
2018-12-17T17:55:21.510Z,6.00
2018-12-17T17:57:49.741Z,6.00
2018-12-17T18:00:17.909Z,6.00
2018-12-17T18:02:46.085Z,6.10
2018-12-17T18:05:14.249Z,6.10
2018-12-17T18:07:42.532Z,6.10
2018-12-17T18:10:10.709Z,6.10
2018-12-17T18:12:38.875Z,6.10
2018-12-17T18:15:07.369Z,6.10
2018-12-17T18:17:35.536Z,6.20
2018-12-17T18:20:04.207Z,6.20
2018-12-17T18:22:32.425Z,6.20
2018-12-17T18:25:00.607Z,6.20
2018-12-17T18:27:28.754Z,6.20
2018-12-17T18:29:56.933Z,6.20
2018-12-17T18:32:26.105Z,6.20
2018-12-17T18:34:54.575Z,6.20
2018-12-17T18:37:22.743Z,6.20
2018-12-17T18:39:50.885Z,6.20
2018-12-17T18:42:19.103Z,6.20
2018-12-17T18:44:47.306Z,6.20
2018-12-17T18:47:15.540Z,6.20
2018-12-17T18:49:43.688Z,6.20
2018-12-17T18:52:11.862Z,6.20
2018-12-17T18:54:40.054Z,6.20
2018-12-17T18:57:08.202Z,6.20
2018-12-17T18:59:36.417Z,6.20
2018-12-17T19:02:04.589Z,6.20
2018-12-17T19:04:33.028Z,6.20
2018-12-17T19:07:01.174Z,6.20
2018-12-17T19:09:29.375Z,6.20
2018-12-17T19:11:57.622Z,6.10
2018-12-17T19:14:25.901Z,6.20
2018-12-17T19:16:54.174Z,6.20
2018-12-17T19:19:22.522Z,6.20
2018-12-17T19:21:50.787Z,6.20
2018-12-17T19:24:19.021Z,6.20
2018-12-17T19:26:47.273Z,6.20
2018-12-17T19:29:15.480Z,6.20
2018-12-17T19:31:43.658Z,6.20
2018-12-17T19:34:11.934Z,6.20
2018-12-17T19:36:40.178Z,6.20
2018-12-17T19:39:08.835Z,6.20
2018-12-17T19:41:37.124Z,6.20
2018-12-17T19:44:05.309Z,6.20
2018-12-17T19:46:33.526Z,6.20
2018-12-17T19:49:01.773Z,6.10
2018-12-17T19:51:29.988Z,6.10
2018-12-17T19:53:58.136Z,6.10
2018-12-17T19:56:26.393Z,6.00
2018-12-17T19:58:54.609Z,5.90
2018-12-17T20:01:22.830Z,5.90
2018-12-17T20:03:50.988Z,5.90
2018-12-17T20:06:20.063Z,5.90
2018-12-17T20:08:48.288Z,5.90
2018-12-17T20:11:16.470Z,5.90
2018-12-17T20:13:44.700Z,5.90
2018-12-17T20:16:13.029Z,5.90
2018-12-17T20:18:41.229Z,5.90
2018-12-17T20:21:09.465Z,5.90
2018-12-17T20:23:38.205Z,5.80
2018-12-17T20:26:06.492Z,5.80
2018-12-17T20:28:34.694Z,5.70
2018-12-17T20:31:02.857Z,5.60
2018-12-17T20:33:31.007Z,5.50
2018-12-17T20:35:59.162Z,5.50
2018-12-17T20:38:27.892Z,5.40
2018-12-17T20:40:56.070Z,5.30
2018-12-17T20:43:24.206Z,5.30
2018-12-17T20:45:52.382Z,5.20
2018-12-17T20:48:20.601Z,5.10
2018-12-17T20:50:48.794Z,5.10
2018-12-17T20:53:16.987Z,5.10
2018-12-17T20:55:45.190Z,5.00
2018-12-17T20:58:13.351Z,4.90
2018-12-17T21:00:41.541Z,4.90
2018-12-17T21:03:09.698Z,4.80
2018-12-17T21:05:37.843Z,4.70
2018-12-17T21:08:05.998Z,4.70
2018-12-17T21:10:34.145Z,4.60
2018-12-17T21:13:02.298Z,4.60
2018-12-17T21:15:30.461Z,4.60
2018-12-17T21:17:58.597Z,4.70
2018-12-17T21:20:27.018Z,4.70
2018-12-17T21:22:55.193Z,4.80
2018-12-17T21:25:23.385Z,4.80
2018-12-17T21:27:51.624Z,4.90
2018-12-17T21:30:19.866Z,4.90
2018-12-17T21:32:48.009Z,4.80
2018-12-17T21:35:16.185Z,4.80
2018-12-17T21:37:44.449Z,4.80
2018-12-17T21:40:12.646Z,4.80
2018-12-17T21:42:40.853Z,4.80
2018-12-17T21:45:09.477Z,4.70
2018-12-17T21:47:38.194Z,4.70
2018-12-17T21:50:06.750Z,4.70
2018-12-17T21:52:34.921Z,4.60
2018-12-17T21:55:04.178Z,4.70
2018-12-17T21:57:32.334Z,4.70
2018-12-17T22:00:00.493Z,4.80
2018-12-17T22:02:28.689Z,4.80
2018-12-17T22:04:56.866Z,4.80
2018-12-17T22:07:25.019Z,4.80
2018-12-17T22:09:54.191Z,4.70
2018-12-17T22:12:22.392Z,4.60
2018-12-17T22:14:50.705Z,4.60
2018-12-17T22:17:18.872Z,4.60
2018-12-17T22:19:47.220Z,4.50
2018-12-17T22:22:15.593Z,4.40
2018-12-17T22:24:43.834Z,4.40
2018-12-17T22:27:12.278Z,4.40
2018-12-17T22:29:40.559Z,4.40
2018-12-17T22:32:09.651Z,4.50
2018-12-17T22:34:38.007Z,4.50
2018-12-17T22:37:06.243Z,4.50
2018-12-17T22:39:34.390Z,4.60
2018-12-17T22:42:02.643Z,4.60
2018-12-17T22:44:30.831Z,4.60
2018-12-17T22:46:59.029Z,4.50
2018-12-17T22:49:27.317Z,4.50
2018-12-17T22:51:55.503Z,4.50
2018-12-17T22:54:23.787Z,4.30
2018-12-17T22:56:51.943Z,4.30
2018-12-17T22:59:20.163Z,4.30
2018-12-17T23:01:48.386Z,4.30
2018-12-17T23:04:16.546Z,4.20
2018-12-17T23:06:44.958Z,4.20
2018-12-17T23:09:12.967Z,4.10
2018-12-17T23:12:11.533Z,4.00
2018-12-17T23:14:51.708Z,3.90
2018-12-17T23:17:31.876Z,3.90
2018-12-17T23:20:00.867Z,3.90
2018-12-17T23:22:29.015Z,3.80
2018-12-17T23:24:57.174Z,3.60
2018-12-17T23:27:25.329Z,3.60
2018-12-17T23:29:53.477Z,3.60
2018-12-17T23:32:22.410Z,3.50
2018-12-17T23:34:50.539Z,3.40
2018-12-17T23:37:19.270Z,3.50
2018-12-17T23:39:48.212Z,3.40
2018-12-17T23:42:16.345Z,3.50
2018-12-17T23:44:44.501Z,3.40
2018-12-17T23:47:13.566Z,3.20
2018-12-17T23:49:41.769Z,3.10
2018-12-17T23:52:10.212Z,3.20
2018-12-17T23:54:38.365Z,3.20
2018-12-17T23:57:06.565Z,3.30
2018-12-17T23:59:34.807Z,3.20
